Etusivu
METAR-TAF:

METAR-TAF

Lentoasemat :

Torino, Italia

Leveyspiiri: 45-13N, Pituuspiiri: 007-39E, korkeus merenpinnasta: 301 m

Tämänhetkinen sää

Tämä raportti tehtiin 40 minuuttia sitten, kello 15.50 UTC
Tuuli 3 kn kaakosta
Lämpötila 16°C
Kosteus 39%
Ilmanpaine 1025 hPa
Näkyvyys: 8000 m

METAR: LIMF 171550Z 14003KT 8000 NSC 16/02 Q1025

Aika: 17:30 (16:30 UTC)

Sääennuste

Tämä raportti tehtiin 5 tuntia ja 30 minuuttia sitten, kello 11.00 UTC
Ennuste voimassa 17. päivästä klo 12 UTC - 18. päivään klo 12 UTC
Tuuli 5 kn eri suunnista
Näkyvyys 10 km tai enemmän
ei pilviä alle 1500 m:ssä eikä cumulonimbus-pilviä
Ajoittain
17. päivästä klo 12 UTC - 17. päivään klo 18 UTC
Näkyvyys: 4000 m
utua

TAF: LIMF 171100Z 1712/1812 VRB05KT CAVOK TEMPO 1712/1718 4000 BR

Säähavainnot ja -ennusteet yli 4000 lentoasemalta (METAR- ja TAF-raportit).

Käytössä olevat sääasemat on merkitty karttaan keltaisilla ja punaisilla pisteillä.

Aseta hiiri pisteen päälle nähdäksesi sääaseman nimen.

Klikkaa sitten nähdäksesi säähavainnot ja -ennusteet.

Kartan vaihtaminen: klikkaa mustalla rastilla varustettuja vihreitä pisteitä, niin voit zoomata sisään; viivalla varustettua vihreää pistettä, niin voit zoomata ulos tai vihreitä nuolia, niin pääset viereisille kartoille.


METAR-TAF: